createdAt,value
2017-12-19T00:00:37.593Z,1.98
2017-12-19T00:03:05.621Z,0.82
2017-12-19T00:05:33.647Z,1.67
2017-12-19T00:08:02.463Z,1.50
2017-12-19T00:10:30.545Z,1.00
2017-12-19T00:12:59.125Z,0.80
2017-12-19T00:15:27.623Z,0.90
2017-12-19T00:17:55.886Z,3.30
2017-12-19T00:20:24.469Z,2.03
2017-12-19T00:22:52.748Z,1.37
2017-12-19T00:25:21.060Z,1.55
2017-12-19T00:27:50.742Z,1.67
2017-12-19T00:30:19.005Z,1.30
2017-12-19T00:32:47.272Z,2.45
2017-12-19T00:35:15.810Z,1.17
2017-12-19T00:37:44.132Z,1.33
2017-12-19T00:40:12.448Z,1.67
2017-12-19T00:42:40.750Z,0.80
2017-12-19T00:45:11.042Z,1.27
2017-12-19T00:47:39.496Z,1.40
2017-12-19T00:50:07.829Z,6.55
2017-12-19T00:52:36.585Z,1.00
2017-12-19T00:55:04.844Z,1.50
2017-12-19T00:57:33.195Z,0.65
2017-12-19T01:00:01.845Z,1.23
2017-12-19T01:02:30.121Z,1.25
2017-12-19T01:04:58.381Z,0.70
2017-12-19T01:07:26.986Z,0.65
2017-12-19T01:09:55.254Z,1.27
2017-12-19T01:12:23.541Z,1.37
2017-12-19T01:14:52.256Z,0.90
2017-12-19T01:17:21.337Z,1.62
2017-12-19T01:19:49.803Z,2.35
2017-12-19T01:22:18.469Z,3.90
2017-12-19T01:24:46.738Z,0.80
2017-12-19T01:27:15.029Z,0.70
2017-12-19T01:29:43.323Z,1.87
2017-12-19T01:32:11.588Z,0.60
2017-12-19T01:34:40.183Z,2.85
2017-12-19T01:37:08.543Z,4.32
2017-12-19T01:39:37.627Z,0.80
2017-12-19T01:42:07.574Z,0.60
2017-12-19T01:44:35.837Z,0.93
2017-12-19T01:47:04.551Z,0.70
2017-12-19T01:49:32.885Z,0.65
2017-12-19T01:52:01.146Z,0.80
2017-12-19T01:54:29.437Z,4.00
2017-12-19T01:56:57.708Z,3.12
2017-12-19T01:59:26.425Z,0.70
2017-12-19T02:01:54.783Z,5.07
2017-12-19T02:04:23.100Z,1.25
2017-12-19T02:06:51.429Z,0.60
2017-12-19T02:09:19.757Z,1.17
2017-12-19T02:11:52.913Z,0.70
2017-12-19T02:14:21.994Z,0.73
2017-12-19T02:16:51.500Z,1.60
2017-12-19T02:19:19.867Z,0.90
2017-12-19T02:21:48.157Z,8.60
2017-12-19T02:24:16.736Z,1.52
2017-12-19T02:26:45.418Z,1.45
2017-12-19T02:29:13.816Z,0.80
2017-12-19T02:31:42.099Z,4.12
2017-12-19T02:34:10.466Z,1.02
2017-12-19T02:36:39.168Z,1.27
2017-12-19T02:39:07.491Z,1.52
2017-12-19T02:41:35.790Z,0.98
2017-12-19T02:44:04.863Z,2.25
2017-12-19T02:46:36.957Z,0.60
2017-12-19T02:49:05.262Z,2.50
2017-12-19T02:51:33.530Z,0.60
2017-12-19T02:54:02.206Z,0.60
2017-12-19T02:56:30.531Z,1.20
2017-12-19T02:58:58.809Z,1.62
2017-12-19T03:01:27.189Z,5.90
2017-12-19T03:03:55.445Z,0.70
2017-12-19T03:06:23.732Z,1.83
2017-12-19T03:08:51.978Z,0.70
2017-12-19T03:11:20.534Z,0.80
2017-12-19T03:13:48.785Z,1.48
2017-12-19T03:16:17.060Z,1.33
2017-12-19T03:18:45.741Z,0.60
2017-12-19T03:21:14.048Z,3.75
2017-12-19T03:23:42.683Z,1.25
2017-12-19T03:26:10.938Z,1.00
2017-12-19T03:28:39.212Z,2.58
2017-12-19T03:31:07.493Z,1.15
2017-12-19T03:33:35.772Z,1.77
2017-12-19T03:36:04.051Z,0.77
2017-12-19T03:38:32.375Z,0.62
2017-12-19T03:41:00.951Z,1.35
2017-12-19T03:43:30.060Z,1.67
2017-12-19T03:45:58.309Z,0.60
2017-12-19T03:48:27.369Z,0.70
2017-12-19T03:50:56.388Z,0.60
2017-12-19T03:53:24.744Z,3.40
2017-12-19T03:55:53.114Z,3.17
2017-12-19T03:58:22.514Z,0.60
2017-12-19T04:00:50.845Z,0.80
2017-12-19T04:03:19.143Z,0.80
2017-12-19T04:05:47.429Z,0.70
2017-12-19T04:08:15.696Z,0.80
2017-12-19T04:10:43.977Z,0.80
2017-12-19T04:13:12.279Z,0.85
2017-12-19T04:15:40.873Z,0.62
2017-12-19T04:18:09.220Z,0.80
2017-12-19T04:20:40.540Z,3.30
2017-12-19T04:23:08.821Z,0.60
2017-12-19T04:25:37.142Z,2.85
2017-12-19T04:28:05.443Z,1.60
2017-12-19T04:30:34.546Z,0.73
2017-12-19T04:33:03.124Z,2.05
2017-12-19T04:35:32.142Z,2.97
2017-12-19T04:38:00.422Z,0.70
2017-12-19T04:40:28.719Z,0.60
2017-12-19T04:45:52.949Z,2.47
2017-12-19T04:48:21.227Z,0.80
2017-12-19T04:50:49.816Z,0.70
2017-12-19T04:53:18.138Z,0.70
2017-12-19T04:55:46.417Z,0.68
2017-12-19T04:58:14.729Z,0.70
2017-12-19T05:00:43.010Z,1.35
2017-12-19T05:03:11.289Z,0.70
2017-12-19T05:05:39.580Z,0.80
2017-12-19T05:08:08.168Z,1.00
2017-12-19T05:10:36.425Z,3.45
2017-12-19T05:13:04.725Z,0.70
2017-12-19T05:15:33.032Z,1.65
2017-12-19T05:18:02.057Z,0.80
2017-12-19T05:20:30.757Z,4.20
2017-12-19T05:22:59.167Z,3.10
2017-12-19T05:25:27.495Z,1.42
2017-12-19T05:27:55.845Z,3.30
2017-12-19T05:30:24.856Z,0.70
2017-12-19T05:32:53.177Z,0.60
2017-12-19T05:35:21.449Z,3.40
2017-12-19T05:37:50.074Z,0.90
2017-12-19T05:40:18.356Z,0.62
2017-12-19T05:42:46.625Z,3.55
2017-12-19T05:45:15.686Z,0.73
2017-12-19T05:47:43.944Z,0.70
2017-12-19T05:50:13.983Z,2.05
2017-12-19T05:52:42.258Z,2.30
2017-12-19T05:55:11.720Z,1.50
2017-12-19T05:57:40.017Z,0.77
2017-12-19T06:00:08.273Z,0.75
2017-12-19T06:02:36.566Z,0.70
2017-12-19T06:05:04.845Z,2.30
2017-12-19T06:07:33.138Z,1.02
2017-12-19T06:10:02.476Z,1.12
2017-12-19T06:12:31.206Z,0.90
2017-12-19T06:14:59.496Z,3.00
2017-12-19T06:17:27.756Z,1.10
2017-12-19T06:19:56.097Z,3.53
2017-12-19T06:22:29.974Z,0.73
2017-12-19T06:24:59.133Z,1.42
2017-12-19T06:27:27.472Z,4.20
2017-12-19T06:29:56.777Z,0.65
2017-12-19T06:32:25.053Z,0.80
2017-12-19T06:34:57.297Z,0.70
2017-12-19T06:37:25.582Z,4.25
2017-12-19T06:39:53.893Z,2.95
2017-12-19T06:42:22.305Z,0.70
2017-12-19T06:44:51.986Z,1.40
2017-12-19T06:47:27.812Z,1.65
2017-12-19T06:49:56.077Z,0.90
2017-12-19T06:52:24.649Z,0.90
2017-12-19T06:54:52.993Z,0.95
2017-12-19T06:57:21.252Z,2.17
2017-12-19T06:59:50.333Z,1.60
2017-12-19T07:02:18.610Z,5.28
2017-12-19T07:04:46.896Z,0.90
2017-12-19T07:07:15.154Z,2.20
2017-12-19T07:09:44.683Z,4.12
2017-12-19T07:12:13.013Z,2.30
2017-12-19T07:14:41.338Z,1.55
2017-12-19T07:17:09.674Z,3.35
2017-12-19T07:19:38.077Z,2.35
2017-12-19T07:22:06.475Z,1.45
2017-12-19T07:24:34.782Z,0.82
2017-12-19T07:27:04.163Z,1.87
2017-12-19T07:29:32.487Z,2.12
2017-12-19T07:32:01.548Z,4.45
2017-12-19T07:34:29.844Z,2.25
2017-12-19T07:36:58.983Z,2.35
2017-12-19T07:39:27.372Z,0.80
2017-12-19T07:41:55.665Z,1.87
2017-12-19T07:44:24.286Z,0.70
2017-12-19T07:46:53.419Z,0.70
2017-12-19T07:49:21.704Z,3.33
2017-12-19T07:51:50.511Z,1.87
2017-12-19T07:54:18.857Z,3.05
2017-12-19T07:56:47.267Z,2.08
2017-12-19T07:59:15.545Z,1.67
2017-12-19T08:01:44.260Z,0.60
2017-12-19T08:04:12.514Z,2.22
2017-12-19T08:06:40.783Z,2.55
2017-12-19T08:09:09.077Z,1.50
2017-12-19T08:11:37.389Z,0.90
2017-12-19T08:14:06.439Z,2.65
2017-12-19T08:16:34.708Z,1.08
2017-12-19T08:19:03.249Z,2.03
2017-12-19T08:21:32.304Z,1.70
2017-12-19T08:24:00.579Z,1.60
2017-12-19T08:26:28.865Z,2.05
2017-12-19T08:28:57.135Z,4.22
2017-12-19T08:31:26.182Z,0.85
2017-12-19T08:33:55.232Z,1.33
2017-12-19T08:36:23.808Z,3.20
2017-12-19T08:38:52.095Z,1.35
2017-12-19T08:41:20.363Z,0.70
2017-12-19T08:43:48.644Z,0.70
2017-12-19T08:46:16.921Z,4.73
2017-12-19T08:48:45.253Z,2.08
2017-12-19T08:51:13.570Z,0.95
2017-12-19T08:53:42.325Z,0.60
2017-12-19T08:56:10.588Z,3.25
2017-12-19T08:58:38.876Z,0.60
2017-12-19T09:01:07.164Z,0.75
2017-12-19T09:03:35.441Z,0.90
2017-12-19T09:06:03.805Z,0.98
2017-12-19T09:08:32.836Z,2.00
2017-12-19T09:11:01.459Z,2.87
2017-12-19T09:13:29.726Z,0.60
2017-12-19T09:15:58.034Z,0.60
2017-12-19T09:18:27.088Z,3.55
2017-12-19T09:20:55.359Z,1.57
2017-12-19T09:23:23.657Z,0.70
2017-12-19T09:25:51.922Z,3.55
2017-12-19T09:28:20.625Z,3.50
2017-12-19T09:30:48.894Z,1.43
2017-12-19T09:33:17.182Z,3.13
2017-12-19T09:35:45.471Z,0.80
2017-12-19T09:38:13.771Z,0.70
2017-12-19T09:40:42.070Z,2.05
2017-12-19T09:43:10.348Z,0.93
2017-12-19T09:45:38.969Z,1.25
2017-12-19T09:48:07.267Z,1.80
2017-12-19T09:50:35.533Z,2.00
2017-12-19T09:53:03.813Z,0.80
2017-12-19T09:55:32.099Z,3.07
2017-12-19T09:58:00.411Z,0.60
2017-12-19T10:00:28.701Z,0.60
2017-12-19T10:02:57.012Z,0.60
2017-12-19T10:05:25.270Z,3.33
2017-12-19T10:07:53.983Z,0.70
2017-12-19T10:10:22.310Z,0.60
2017-12-19T10:12:50.596Z,1.60
2017-12-19T10:15:18.873Z,0.80
2017-12-19T10:17:47.917Z,0.70
2017-12-19T10:20:16.506Z,5.40
2017-12-19T10:22:44.756Z,5.90
2017-12-19T10:25:13.058Z,0.70
2017-12-19T10:27:41.342Z,0.90
2017-12-19T10:30:09.680Z,8.20
2017-12-19T10:32:38.030Z,0.70
2017-12-19T10:35:06.291Z,1.10
2017-12-19T10:37:34.619Z,0.70
2017-12-19T10:40:02.878Z,3.13
2017-12-19T10:42:31.603Z,0.70
2017-12-19T10:44:59.893Z,1.47
2017-12-19T10:47:28.140Z,0.60
2017-12-19T10:49:56.427Z,0.63
2017-12-19T10:52:24.700Z,0.80
2017-12-19T10:54:53.021Z,2.87
2017-12-19T10:57:22.049Z,0.70
2017-12-19T10:59:50.403Z,0.70
2017-12-19T11:02:18.753Z,0.80
2017-12-19T11:04:47.002Z,0.70
2017-12-19T11:07:15.299Z,0.80
2017-12-19T11:09:43.567Z,2.83
2017-12-19T11:12:11.853Z,0.60
2017-12-19T11:14:40.118Z,0.70
2017-12-19T11:17:09.461Z,1.17
2017-12-19T11:19:37.735Z,0.60
2017-12-19T11:22:06.002Z,0.70
2017-12-19T11:24:34.338Z,2.17
2017-12-19T11:27:02.697Z,4.73
2017-12-19T11:29:30.974Z,0.63
2017-12-19T11:31:59.278Z,1.10
2017-12-19T11:34:27.887Z,1.40
2017-12-19T11:36:56.797Z,1.67
2017-12-19T11:39:25.056Z,1.20
2017-12-19T11:41:53.397Z,1.17
2017-12-19T11:44:21.659Z,1.10
2017-12-19T11:46:50.399Z,0.70
2017-12-19T11:49:19.430Z,1.30
2017-12-19T11:51:48.492Z,0.70
2017-12-19T11:54:16.788Z,0.70
2017-12-19T11:56:45.066Z,1.30
2017-12-19T11:59:13.345Z,3.80
2017-12-19T12:01:41.957Z,0.80
2017-12-19T12:04:11.035Z,1.57
2017-12-19T12:06:39.318Z,0.93
2017-12-19T12:09:07.615Z,1.10
2017-12-19T12:11:36.630Z,1.20
2017-12-19T12:14:04.939Z,0.80
2017-12-19T12:16:33.218Z,0.90
2017-12-19T12:19:01.813Z,1.47
2017-12-19T12:21:30.111Z,3.80
2017-12-19T12:23:58.373Z,1.13
2017-12-19T12:26:26.695Z,2.80
2017-12-19T12:28:54.954Z,1.53
2017-12-19T12:31:24.334Z,3.33
2017-12-19T12:33:52.622Z,0.80
2017-12-19T12:36:20.886Z,0.80
2017-12-19T12:38:49.165Z,0.80
2017-12-19T12:41:17.436Z,1.03
2017-12-19T12:43:45.733Z,0.80
2017-12-19T12:46:13.995Z,2.30
2017-12-19T12:48:42.575Z,1.00
2017-12-19T12:51:10.819Z,1.37
2017-12-19T12:53:39.105Z,1.87
2017-12-19T12:56:07.416Z,0.70
2017-12-19T12:58:35.687Z,0.60
2017-12-19T13:01:03.975Z,1.13
2017-12-19T13:03:32.240Z,4.00
2017-12-19T13:06:00.815Z,2.00
2017-12-19T13:08:29.085Z,0.93
2017-12-19T13:10:57.461Z,0.60
2017-12-19T13:13:25.762Z,1.53
2017-12-19T13:15:54.018Z,0.60
2017-12-19T13:18:22.315Z,0.70
2017-12-19T13:20:51.377Z,1.00
2017-12-19T13:23:19.678Z,1.10
2017-12-19T13:25:47.948Z,1.77
2017-12-19T13:28:16.633Z,1.40
2017-12-19T13:30:44.903Z,7.73
2017-12-19T13:33:13.202Z,9.30
2017-12-19T13:35:41.503Z,13.20
2017-12-19T13:38:10.549Z,12.27
2017-12-19T13:40:38.870Z,10.53
2017-12-19T13:43:07.922Z,12.20
2017-12-19T13:45:36.237Z,12.30
2017-12-19T13:48:04.530Z,11.37
2017-12-19T13:50:33.104Z,12.90
2017-12-19T13:53:01.388Z,13.47
2017-12-19T13:55:30.438Z,11.63
2017-12-19T13:57:59.387Z,12.17
2017-12-19T14:00:27.683Z,11.50
2017-12-19T14:02:56.315Z,12.40
2017-12-19T14:05:24.602Z,13.57
2017-12-19T14:07:52.950Z,13.67
2017-12-19T14:10:21.398Z,12.83
2017-12-19T14:12:52.569Z,13.17
2017-12-19T14:15:21.633Z,13.23
2017-12-19T14:17:50.685Z,10.70
2017-12-19T14:20:18.975Z,9.13
2017-12-19T14:22:47.318Z,14.37
2017-12-19T14:25:15.946Z,10.73
2017-12-19T14:27:44.258Z,13.47
2017-12-19T14:30:12.611Z,15.07
2017-12-19T14:32:41.852Z,11.70
2017-12-19T14:35:10.154Z,14.47
2017-12-19T14:37:38.463Z,14.20
2017-12-19T14:40:06.762Z,14.60
2017-12-19T14:42:35.822Z,12.83
2017-12-19T14:45:04.199Z,15.30
2017-12-19T14:47:32.816Z,12.97
2017-12-19T14:50:01.117Z,13.47
2017-12-19T14:52:30.093Z,12.30
2017-12-19T14:54:58.390Z,12.73
2017-12-19T14:57:26.670Z,13.00
2017-12-19T14:59:54.974Z,14.47
2017-12-19T15:02:23.250Z,15.00
2017-12-19T15:04:51.857Z,14.50
2017-12-19T15:07:20.175Z,15.20
2017-12-19T15:09:49.217Z,12.47
2017-12-19T15:12:17.673Z,14.57
2017-12-19T15:14:45.945Z,12.80
2017-12-19T15:17:14.270Z,13.60
2017-12-19T15:19:42.544Z,13.90
2017-12-19T15:22:10.864Z,13.20
2017-12-19T15:24:39.907Z,14.00
2017-12-19T15:27:08.497Z,14.30
2017-12-19T15:29:36.775Z,13.80
2017-12-19T15:32:05.882Z,13.53
2017-12-19T15:34:34.183Z,15.50
2017-12-19T15:37:02.459Z,14.83
2017-12-19T15:39:30.754Z,0.70
2017-12-19T15:41:59.815Z,1.07
2017-12-19T15:44:28.109Z,1.43
2017-12-19T15:46:56.826Z,0.70
2017-12-19T15:49:25.729Z,0.60
2017-12-19T15:51:53.982Z,2.50
2017-12-19T15:54:23.012Z,1.47
2017-12-19T15:56:52.087Z,0.70
2017-12-19T15:59:20.353Z,2.70
2017-12-19T16:01:48.642Z,1.27
2017-12-19T16:04:16.944Z,0.80
2017-12-19T16:06:45.506Z,4.00
2017-12-19T16:09:13.804Z,1.33
2017-12-19T16:11:42.075Z,1.37
2017-12-19T16:14:11.140Z,2.57
2017-12-19T16:16:40.193Z,2.33
2017-12-19T16:19:08.806Z,0.83
2017-12-19T16:21:37.135Z,0.63
2017-12-19T16:24:05.394Z,1.00
2017-12-19T16:26:33.695Z,1.17
2017-12-19T16:29:01.974Z,0.80
2017-12-19T16:31:32.852Z,0.90
2017-12-19T16:34:01.215Z,1.43
2017-12-19T16:36:29.531Z,1.23
2017-12-19T16:38:57.941Z,3.33
2017-12-19T16:41:26.574Z,1.40
2017-12-19T16:43:54.851Z,0.60
2017-12-19T16:46:27.573Z,0.90
2017-12-19T16:49:00.350Z,2.87
2017-12-19T16:51:29.690Z,3.73
2017-12-19T16:53:58.668Z,3.80
2017-12-19T16:56:27.000Z,1.07
2017-12-19T16:58:55.310Z,1.33
2017-12-19T17:01:24.358Z,3.60
2017-12-19T17:03:52.658Z,0.80
2017-12-19T17:06:20.945Z,0.80
2017-12-19T17:08:50.300Z,2.90
2017-12-19T17:11:18.578Z,1.73
2017-12-19T17:13:46.849Z,0.70
2017-12-19T17:16:15.146Z,1.43
2017-12-19T17:18:43.433Z,1.10
2017-12-19T17:21:11.753Z,0.87
2017-12-19T17:23:40.809Z,0.70
2017-12-19T17:26:09.406Z,1.00
2017-12-19T17:28:37.675Z,1.00
2017-12-19T17:31:05.974Z,0.90
2017-12-19T17:33:34.311Z,3.47
2017-12-19T17:36:02.637Z,0.70
2017-12-19T17:38:31.021Z,0.73
2017-12-19T17:41:00.093Z,1.10
2017-12-19T17:43:28.480Z,2.47
2017-12-19T17:45:56.739Z,2.57
2017-12-19T17:48:25.347Z,1.43
2017-12-19T17:50:53.590Z,0.67
2017-12-19T17:53:21.880Z,0.93
2017-12-19T17:55:50.235Z,1.10
2017-12-19T17:58:18.533Z,1.00
2017-12-19T18:00:46.836Z,1.57
2017-12-19T18:03:15.938Z,0.70
2017-12-19T18:05:47.912Z,4.00
2017-12-19T18:08:17.284Z,0.70
2017-12-19T18:10:46.610Z,0.80
2017-12-19T18:13:15.645Z,1.20
2017-12-19T18:15:43.943Z,0.60
2017-12-19T18:18:12.243Z,0.70
2017-12-19T18:20:40.543Z,1.13
2017-12-19T18:23:08.826Z,1.53
2017-12-19T18:25:37.126Z,0.70
2017-12-19T18:28:05.756Z,1.03
2017-12-19T18:30:35.429Z,0.90
2017-12-19T18:33:03.686Z,1.00
2017-12-19T18:35:31.997Z,0.70
2017-12-19T18:38:00.263Z,3.13
2017-12-19T18:40:28.741Z,0.60
2017-12-19T18:42:57.032Z,0.60
2017-12-19T18:45:25.539Z,0.70
2017-12-19T18:47:57.086Z,0.70
2017-12-19T18:50:25.609Z,0.70
2017-12-19T18:52:54.639Z,0.70
2017-12-19T18:55:23.177Z,0.60
2017-12-19T18:57:52.222Z,0.70
2017-12-19T19:00:20.478Z,1.30
2017-12-19T19:02:48.766Z,0.80
2017-12-19T19:05:17.080Z,0.87
2017-12-19T19:07:45.366Z,0.70
2017-12-19T19:10:13.665Z,2.13
2017-12-19T19:12:42.238Z,0.90
2017-12-19T19:15:10.527Z,0.60
2017-12-19T19:17:38.873Z,0.80
2017-12-19T19:20:07.304Z,0.60
2017-12-19T19:22:35.599Z,0.90
2017-12-19T19:25:03.886Z,0.70
2017-12-19T19:27:32.233Z,0.70
2017-12-19T19:30:00.869Z,2.20
2017-12-19T19:32:29.164Z,1.07
2017-12-19T19:34:57.528Z,0.70
2017-12-19T19:37:25.870Z,2.70
2017-12-19T19:39:54.158Z,0.70
2017-12-19T19:42:22.489Z,2.50
2017-12-19T19:44:50.927Z,3.07
2017-12-19T19:47:19.442Z,6.07
2017-12-19T19:49:47.742Z,5.87
2017-12-19T19:52:16.863Z,6.93
2017-12-19T19:54:45.195Z,7.23
2017-12-19T19:57:13.560Z,8.13
2017-12-19T19:59:41.928Z,6.93
2017-12-19T20:02:10.573Z,8.03
2017-12-19T20:04:39.629Z,6.93
2017-12-19T20:07:08.170Z,7.67
2017-12-19T20:09:36.630Z,9.40
2017-12-19T20:12:05.006Z,5.70
2017-12-19T20:14:34.917Z,9.70
2017-12-19T20:17:04.552Z,8.40
2017-12-19T20:19:35.312Z,8.07
2017-12-19T20:22:05.966Z,7.93
2017-12-19T20:24:37.254Z,8.43
2017-12-19T20:27:06.068Z,9.03
2017-12-19T20:29:35.478Z,8.83
2017-12-19T20:32:04.786Z,7.83
2017-12-19T20:34:33.174Z,7.77
2017-12-19T20:37:01.533Z,10.03
2017-12-19T20:39:29.873Z,7.70
2017-12-19T20:41:58.650Z,8.60
2017-12-19T20:44:27.772Z,9.50
2017-12-19T20:46:56.157Z,9.60
2017-12-19T20:49:24.596Z,11.87
2017-12-19T20:51:53.397Z,11.33
2017-12-19T20:54:22.123Z,10.80
2017-12-19T20:56:50.480Z,11.03
2017-12-19T20:59:20.447Z,10.33
2017-12-19T21:01:52.878Z,10.80
2017-12-19T21:04:21.596Z,10.53
2017-12-19T21:06:49.947Z,9.90
2017-12-19T21:09:19.097Z,11.33
2017-12-19T21:11:47.472Z,14.20
2017-12-19T21:14:15.787Z,14.27
2017-12-19T21:16:44.137Z,14.47
2017-12-19T21:19:12.504Z,13.20
2017-12-19T21:21:40.973Z,10.77
2017-12-19T21:24:10.300Z,11.97
2017-12-19T21:26:39.037Z,13.83
2017-12-19T21:29:07.369Z,13.07
2017-12-19T21:31:36.232Z,13.07
2017-12-19T21:34:06.771Z,12.37
2017-12-19T21:36:35.051Z,11.50
2017-12-19T21:39:04.371Z,11.17
2017-12-19T21:41:32.970Z,11.07
2017-12-19T21:44:01.579Z,11.10
2017-12-19T21:46:30.662Z,11.00
2017-12-19T21:48:58.942Z,8.90
2017-12-19T21:51:27.308Z,11.50
2017-12-19T21:53:55.607Z,10.23
2017-12-19T21:56:23.926Z,9.10
2017-12-19T21:58:52.235Z,8.93
2017-12-19T22:01:20.818Z,9.60
2017-12-19T22:03:49.122Z,12.83
2017-12-19T22:06:17.403Z,10.33
2017-12-19T22:08:45.713Z,9.50
2017-12-19T22:11:14.003Z,10.57
2017-12-19T22:13:42.334Z,11.30
2017-12-19T22:16:10.705Z,10.53
2017-12-19T22:18:39.063Z,10.27
2017-12-19T22:21:07.575Z,10.43
2017-12-19T22:23:35.883Z,10.10
2017-12-19T22:26:04.200Z,12.60
2017-12-19T22:28:32.916Z,11.53
2017-12-19T22:31:01.188Z,10.23
2017-12-19T22:33:29.465Z,10.33
2017-12-19T22:35:57.775Z,11.33
2017-12-19T22:38:26.085Z,11.83
2017-12-19T22:40:54.404Z,9.80
2017-12-19T22:43:22.667Z,11.87
2017-12-19T22:45:51.277Z,12.37
2017-12-19T22:48:19.534Z,11.37
2017-12-19T22:50:47.837Z,12.87
2017-12-19T22:53:16.933Z,10.67
2017-12-19T22:55:46.024Z,10.73
2017-12-19T22:58:14.335Z,10.23
2017-12-19T23:00:42.613Z,12.43
2017-12-19T23:03:11.024Z,10.80
2017-12-19T23:05:39.301Z,10.10
2017-12-19T23:08:08.080Z,11.50
2017-12-19T23:10:37.083Z,13.40
2017-12-19T23:13:05.370Z,14.60
2017-12-19T23:15:33.690Z,12.23
2017-12-19T23:18:01.954Z,16.23
2017-12-19T23:20:30.325Z,17.43
2017-12-19T23:22:58.607Z,17.70
2017-12-19T23:25:26.916Z,14.73
2017-12-19T23:27:55.183Z,15.57
2017-12-19T23:30:24.562Z,13.97
2017-12-19T23:32:52.845Z,14.43
2017-12-19T23:35:21.412Z,14.50
2017-12-19T23:37:49.700Z,14.60
2017-12-19T23:40:17.971Z,16.30
2017-12-19T23:42:46.556Z,14.87
2017-12-19T23:45:14.871Z,14.23
2017-12-19T23:47:43.133Z,13.90
2017-12-19T23:50:12.198Z,15.63
2017-12-19T23:52:40.491Z,11.10
2017-12-19T23:55:08.785Z,13.67
2017-12-19T23:57:37.834Z,12.87
